sensor_id;sensor_type;location;lat;lon;timestamp;pressure;altitude;pressure_sealevel;temperature;humidity
9538;BME280;4807;48.024;11.726;2023-05-16T00:00:09;94591.50;;;9.97;86.32
9538;BME280;4807;48.024;11.726;2023-05-16T00:03:18;94581.69;;;10.04;85.99
9538;BME280;4807;48.024;11.726;2023-05-16T00:06:26;94584.31;;;9.98;86.01
9538;BME280;4807;48.024;11.726;2023-05-16T00:09:34;94582.72;;;10.03;86.03
9538;BME280;4807;48.024;11.726;2023-05-16T00:12:44;94572.69;;;9.79;86.27
9538;BME280;4807;48.024;11.726;2023-05-16T00:15:55;94573.50;;;9.86;86.89
9538;BME280;4807;48.024;11.726;2023-05-16T00:19:05;94572.69;;;9.85;86.69
9538;BME280;4807;48.024;11.726;2023-05-16T00:22:14;94581.69;;;9.78;87.10
9538;BME280;4807;48.024;11.726;2023-05-16T00:25:22;94578.63;;;9.68;87.36
9538;BME280;4807;48.024;11.726;2023-05-16T00:28:31;94581.69;;;9.78;86.81
9538;BME280;4807;48.024;11.726;2023-05-16T00:31:40;94577.59;;;9.95;86.75
9538;BME280;4807;48.024;11.726;2023-05-16T00:34:48;94572.66;;;9.99;85.55
9538;BME280;4807;48.024;11.726;2023-05-16T00:37:56;94566.97;;;9.88;86.44
9538;BME280;4807;48.024;11.726;2023-05-16T00:41:04;94566.97;;;9.88;86.00
9538;BME280;4807;48.024;11.726;2023-05-16T00:44:14;94564.50;;;9.87;85.91
9538;BME280;4807;48.024;11.726;2023-05-16T00:47:22;94566.75;;;9.90;85.25
9538;BME280;4807;48.024;11.726;2023-05-16T00:50:32;94569.41;;;9.97;86.28
9538;BME280;4807;48.024;11.726;2023-05-16T00:53:41;94562.88;;;9.86;86.28
9538;BME280;4807;48.024;11.726;2023-05-16T00:56:50;94565.72;;;9.91;86.50
9538;BME280;4807;48.024;11.726;2023-05-16T01:00:00;94569.81;;;10.00;85.61
9538;BME280;4807;48.024;11.726;2023-05-16T01:03:09;94566.94;;;10.02;85.38
9538;BME280;4807;48.024;11.726;2023-05-16T01:06:18;94562.44;;;10.02;85.19
9538;BME280;4807;48.024;11.726;2023-05-16T01:09:26;94564.50;;;10.13;84.17
9538;BME280;4807;48.024;11.726;2023-05-16T01:12:42;94548.13;;;10.03;85.06
9538;BME280;4807;48.024;11.726;2023-05-16T01:16:04;94559.19;;;9.87;86.30
9538;BME280;4807;48.024;11.726;2023-05-16T01:19:36;94550.19;;;9.88;85.96
9538;BME280;4807;48.024;11.726;2023-05-16T01:23:19;94551.84;;;9.89;86.11
9538;BME280;4807;48.024;11.726;2023-05-16T01:26:36;94545.69;;;9.88;86.27
9538;BME280;4807;48.024;11.726;2023-05-16T01:29:45;94553.47;;;9.77;86.29
9538;BME280;4807;48.024;11.726;2023-05-16T01:32:54;94546.13;;;9.79;86.87
9538;BME280;4807;48.024;11.726;2023-05-16T01:36:11;94548.16;;;9.77;86.36
9538;BME280;4807;48.024;11.726;2023-05-16T01:39:29;94553.06;;;9.80;86.46
9538;BME280;4807;48.024;11.726;2023-05-16T01:42:46;94553.06;;;9.80;87.23
9538;BME280;4807;48.024;11.726;2023-05-16T01:46:02;94551.00;;;9.82;87.39
9538;BME280;4807;48.024;11.726;2023-05-16T01:49:20;94547.72;;;9.93;86.38
9538;BME280;4807;48.024;11.726;2023-05-16T01:52:39;94559.00;;;9.88;87.20
9538;BME280;4807;48.024;11.726;2023-05-16T01:55:51;94551.84;;;9.89;86.27
9538;BME280;4807;48.024;11.726;2023-05-16T01:59:01;94551.00;;;9.82;86.50
9538;BME280;4807;48.024;11.726;2023-05-16T02:02:11;94545.69;;;9.75;87.30
9538;BME280;4807;48.024;11.726;2023-05-16T02:05:19;94543.25;;;9.80;86.35
9538;BME280;4807;48.024;11.726;2023-05-16T02:08:28;94551.41;;;9.92;85.84
9538;BME280;4807;48.024;11.726;2023-05-16T02:11:37;94551.41;;;9.85;85.97
9538;BME280;4807;48.024;11.726;2023-05-16T02:14:46;94555.50;;;9.88;87.23
9538;BME280;4807;48.024;11.726;2023-05-16T02:17:56;94551.22;;;9.74;86.82
9538;BME280;4807;48.024;11.726;2023-05-16T02:21:04;94553.47;;;9.77;87.63
9538;BME280;4807;48.024;11.726;2023-05-16T02:24:15;94556.75;;;9.79;87.17
9538;BME280;4807;48.024;11.726;2023-05-16T02:27:23;94552.25;;;9.79;86.80
9538;BME280;4807;48.024;11.726;2023-05-16T02:30:33;94555.09;;;9.91;86.86
9538;BME280;4807;48.024;11.726;2023-05-16T02:33:41;94544.47;;;9.84;86.83
9538;BME280;4807;48.024;11.726;2023-05-16T02:36:49;94547.31;;;9.83;86.65
9538;BME280;4807;48.024;11.726;2023-05-16T02:39:57;94551.00;;;9.75;87.50
9538;BME280;4807;48.024;11.726;2023-05-16T02:43:06;94547.75;;;9.80;86.35
9538;BME280;4807;48.024;11.726;2023-05-16T02:46:24;94550.81;;;9.77;86.57
9538;BME280;4807;48.024;11.726;2023-05-16T02:49:33;94546.09;;;9.66;87.29
9538;BME280;4807;48.024;11.726;2023-05-16T02:52:41;94547.34;;;9.63;87.71
9538;BME280;4807;48.024;11.726;2023-05-16T02:55:49;94539.16;;;9.65;87.26
9538;BME280;4807;48.024;11.726;2023-05-16T02:58:59;94543.44;;;9.66;87.68
9538;BME280;4807;48.024;11.726;2023-05-16T03:02:08;94548.78;;;9.72;87.44
9538;BME280;4807;48.024;11.726;2023-05-16T03:05:17;94541.41;;;9.54;87.94
9538;BME280;4807;48.024;11.726;2023-05-16T03:08:25;94536.72;;;9.56;87.92
9538;BME280;4807;48.024;11.726;2023-05-16T03:11:38;94537.94;;;9.54;87.80
9538;BME280;4807;48.024;11.726;2023-05-16T03:14:46;94535.09;;;9.55;88.11
9538;BME280;4807;48.024;11.726;2023-05-16T03:17:57;94541.59;;;9.60;87.74
9538;BME280;4807;48.024;11.726;2023-05-16T03:21:06;94542.41;;;9.67;87.68
9538;BME280;4807;48.024;11.726;2023-05-16T03:24:16;94534.25;;;9.68;87.34
9538;BME280;4807;48.024;11.726;2023-05-16T03:27:26;94534.25;;;9.68;87.75
9538;BME280;4807;48.024;11.726;2023-05-16T03:30:35;94532.41;;;9.69;86.85
9538;BME280;4807;48.024;11.726;2023-05-16T03:33:44;94540.38;;;9.82;86.78
9538;BME280;4807;48.024;11.726;2023-05-16T03:36:52;94534.63;;;9.91;85.29
9538;BME280;4807;48.024;11.726;2023-05-16T03:40:01;94534.22;;;9.81;85.66
9538;BME280;4807;48.024;11.726;2023-05-16T03:43:11;94537.91;;;9.67;86.57
9538;BME280;4807;48.024;11.726;2023-05-16T03:46:19;94536.72;;;9.63;86.63
9538;BME280;4807;48.024;11.726;2023-05-16T03:49:29;94531.78;;;9.67;87.16
9538;BME280;4807;48.024;11.726;2023-05-16T03:52:37;94538.75;;;9.68;87.39
9538;BME280;4807;48.024;11.726;2023-05-16T03:55:45;94542.41;;;9.73;87.02
9538;BME280;4807;48.024;11.726;2023-05-16T03:58:54;94539.34;;;9.76;87.12
9538;BME280;4807;48.024;11.726;2023-05-16T04:02:03;94539.53;;;9.81;87.04
9538;BME280;4807;48.024;11.726;2023-05-16T04:05:13;94543.25;;;9.87;85.71
9538;BME280;4807;48.024;11.726;2023-05-16T04:08:21;94541.59;;;9.92;85.31
9538;BME280;4807;48.024;11.726;2023-05-16T04:11:30;94535.88;;;9.82;85.96
9538;BME280;4807;48.024;11.726;2023-05-16T04:14:38;94541.81;;;9.78;86.92
9538;BME280;4807;48.024;11.726;2023-05-16T04:17:46;94536.31;;;9.73;87.48
9538;BME280;4807;48.024;11.726;2023-05-16T04:20:56;94534.44;;;9.86;86.26
9538;BME280;4807;48.024;11.726;2023-05-16T04:24:05;94536.47;;;9.91;86.01
9538;BME280;4807;48.024;11.726;2023-05-16T04:27:14;94533.81;;;9.84;85.77
9538;BME280;4807;48.024;11.726;2023-05-16T04:30:22;94538.94;;;9.86;86.69
9538;BME280;4807;48.024;11.726;2023-05-16T04:33:30;94539.56;;;9.88;86.83
9538;BME280;4807;48.024;11.726;2023-05-16T04:36:39;94533.81;;;9.84;86.11
9538;BME280;4807;48.024;11.726;2023-05-16T04:39:47;94527.69;;;9.97;86.26
9538;BME280;4807;48.024;11.726;2023-05-16T04:42:56;94532.59;;;9.87;86.63
9538;BME280;4807;48.024;11.726;2023-05-16T04:46:04;94533.81;;;9.91;86.12
9538;BME280;4807;48.024;11.726;2023-05-16T04:49:13;94528.06;;;10.01;85.87
9538;BME280;4807;48.024;11.726;2023-05-16T04:52:22;94525.81;;;10.11;84.34
9538;BME280;4807;48.024;11.726;2023-05-16T04:55:31;94530.94;;;9.99;84.96
9538;BME280;4807;48.024;11.726;2023-05-16T04:58:39;94539.13;;;10.04;84.94
9538;BME280;4807;48.024;11.726;2023-05-16T05:01:48;94536.66;;;10.09;84.66
9538;BME280;4807;48.024;11.726;2023-05-16T05:04:57;94534.00;;;10.09;84.12
9538;BME280;4807;48.024;11.726;2023-05-16T05:08:06;94539.50;;;10.08;84.38
9538;BME280;4807;48.024;11.726;2023-05-16T05:11:15;94541.78;;;10.11;84.20
9538;BME280;4807;48.024;11.726;2023-05-16T05:14:23;94537.47;;;10.10;84.96
9538;BME280;4807;48.024;11.726;2023-05-16T05:17:32;94535.00;;;10.15;84.13
9538;BME280;4807;48.024;11.726;2023-05-16T05:20:40;94540.75;;;10.12;84.68
9538;BME280;4807;48.024;11.726;2023-05-16T05:23:50;94544.63;;;10.22;85.09
9538;BME280;4807;48.024;11.726;2023-05-16T05:26:59;94541.97;;;10.22;84.78
9538;BME280;4807;48.024;11.726;2023-05-16T05:30:08;94538.47;;;10.15;85.31
9538;BME280;4807;48.024;11.726;2023-05-16T05:33:17;94542.78;;;10.16;85.03
9538;BME280;4807;48.024;11.726;2023-05-16T05:36:25;94544.84;;;10.27;84.78
9538;BME280;4807;48.024;11.726;2023-05-16T05:39:35;94543.81;;;10.28;85.44
9538;BME280;4807;48.024;11.726;2023-05-16T05:42:43;94538.50;;;10.28;85.12
9538;BME280;4807;48.024;11.726;2023-05-16T05:45:53;94545.81;;;10.40;83.55
9538;BME280;4807;48.024;11.726;2023-05-16T05:49:01;94543.16;;;10.40;83.79
9538;BME280;4807;48.024;11.726;2023-05-16T05:52:10;94543.94;;;10.47;83.47
9538;BME280;4807;48.024;11.726;2023-05-16T05:55:19;94536.19;;;10.45;83.40
9538;BME280;4807;48.024;11.726;2023-05-16T05:58:28;94542.34;;;10.46;84.22
9538;BME280;4807;48.024;11.726;2023-05-16T06:01:36;94537.41;;;10.43;83.87
9538;BME280;4807;48.024;11.726;2023-05-16T06:04:45;94536.59;;;10.42;84.11
9538;BME280;4807;48.024;11.726;2023-05-16T06:07:53;94534.13;;;10.41;84.17
9538;BME280;4807;48.024;11.726;2023-05-16T06:11:03;94529.59;;;10.48;83.92
9538;BME280;4807;48.024;11.726;2023-05-16T06:14:12;94531.22;;;10.55;83.21
9538;BME280;4807;48.024;11.726;2023-05-16T06:17:21;94535.72;;;10.55;83.19
9538;BME280;4807;48.024;11.726;2023-05-16T06:20:29;94531.63;;;10.59;82.95
9538;BME280;4807;48.024;11.726;2023-05-16T06:23:37;94533.72;;;10.50;82.94
9538;BME280;4807;48.024;11.726;2023-05-16T06:26:47;94533.25;;;10.60;83.13
9538;BME280;4807;48.024;11.726;2023-05-16T06:29:57;94535.38;;;10.45;83.53
9538;BME280;4807;48.024;11.726;2023-05-16T06:33:05;94538.44;;;10.42;83.13
9538;BME280;4807;48.024;11.726;2023-05-16T06:36:13;94545.56;;;10.48;83.48
9538;BME280;4807;48.024;11.726;2023-05-16T06:39:21;94546.81;;;10.52;83.44
9538;BME280;4807;48.024;11.726;2023-05-16T06:42:30;94551.09;;;10.46;82.89
9538;BME280;4807;48.024;11.726;2023-05-16T06:45:39;94550.53;;;10.44;83.55
9538;BME280;4807;48.024;11.726;2023-05-16T06:48:47;94540.25;;;10.48;83.82
9538;BME280;4807;48.024;11.726;2023-05-16T06:51:55;94543.13;;;10.53;83.76
9538;BME280;4807;48.024;11.726;2023-05-16T06:55:04;94556.00;;;10.56;82.84
9538;BME280;4807;48.024;11.726;2023-05-16T06:58:14;94543.84;;;10.73;82.82
9538;BME280;4807;48.024;11.726;2023-05-16T07:01:22;94545.66;;;10.86;82.57
9538;BME280;4807;48.024;11.726;2023-05-16T07:04:30;94543.19;;;10.84;82.71
9538;BME280;4807;48.024;11.726;2023-05-16T07:07:40;94544.47;;;10.75;82.81
9538;BME280;4807;48.024;11.726;2023-05-16T07:10:48;94547.56;;;10.65;83.29
9538;BME280;4807;48.024;11.726;2023-05-16T07:13:58;94549.25;;;10.60;83.85
9538;BME280;4807;48.024;11.726;2023-05-16T07:17:06;94538.97;;;10.63;83.53
9538;BME280;4807;48.024;11.726;2023-05-16T07:20:15;94542.50;;;10.51;84.60
9538;BME280;4807;48.024;11.726;2023-05-16T07:23:23;94545.97;;;10.58;84.29
9538;BME280;4807;48.024;11.726;2023-05-16T07:26:31;94550.88;;;10.54;84.81
9538;BME280;4807;48.024;11.726;2023-05-16T07:29:41;94549.66;;;10.57;85.04
9538;BME280;4807;48.024;11.726;2023-05-16T07:32:49;94558.44;;;10.64;84.75
9538;BME280;4807;48.024;11.726;2023-05-16T07:36:00;94549.25;;;10.60;84.89
9538;BME280;4807;48.024;11.726;2023-05-16T07:39:22;94555.34;;;10.67;84.13
9538;BME280;4807;48.024;11.726;2023-05-16T07:42:30;94563.72;;;10.77;84.20
9538;BME280;4807;48.024;11.726;2023-05-16T07:45:40;94571.22;;;10.93;83.27
9538;BME280;4807;48.024;11.726;2023-05-16T07:48:49;94565.47;;;10.96;83.74
9538;BME280;4807;48.024;11.726;2023-05-16T07:51:57;94569.31;;;11.07;82.77
9538;BME280;4807;48.024;11.726;2023-05-16T07:55:07;94576.84;;;11.17;83.31
9538;BME280;4807;48.024;11.726;2023-05-16T07:58:15;94572.81;;;11.39;81.46
9538;BME280;4807;48.024;11.726;2023-05-16T08:01:25;94577.53;;;11.37;81.23
9538;BME280;4807;48.024;11.726;2023-05-16T08:04:33;94587.41;;;11.30;80.90
9538;BME280;4807;48.024;11.726;2023-05-16T08:07:42;94580.81;;;11.39;81.60
9538;BME280;4807;48.024;11.726;2023-05-16T08:10:50;94579.53;;;11.48;81.48
9538;BME280;4807;48.024;11.726;2023-05-16T08:13:58;94593.00;;;11.53;81.22
9538;BME280;4807;48.024;11.726;2023-05-16T08:17:08;94590.56;;;11.52;81.68
9538;BME280;4807;48.024;11.726;2023-05-16T08:20:16;94592.16;;;11.59;81.49
9538;BME280;4807;48.024;11.726;2023-05-16T08:23:24;94586.38;;;11.62;81.00
9538;BME280;4807;48.024;11.726;2023-05-16T08:26:32;94577.47;;;11.81;79.72
9538;BME280;4807;48.024;11.726;2023-05-16T08:29:41;94574.19;;;12.47;79.66
9538;BME280;4807;48.024;11.726;2023-05-16T08:32:51;94570.91;;;12.82;77.82
9538;BME280;4807;48.024;11.726;2023-05-16T08:36:04;94577.72;;;13.32;74.70
9538;BME280;4807;48.024;11.726;2023-05-16T08:39:12;94578.06;;;13.66;75.38
9538;BME280;4807;48.024;11.726;2023-05-16T08:42:21;94582.69;;;14.24;73.03
9538;BME280;4807;48.024;11.726;2023-05-16T08:45:30;94577.81;;;14.44;71.22
9538;BME280;4807;48.024;11.726;2023-05-16T08:48:45;94567.03;;;15.02;69.85
9538;BME280;4807;48.024;11.726;2023-05-16T08:51:56;94573.69;;;15.00;69.36
9538;BME280;4807;48.024;11.726;2023-05-16T08:55:08;94560.34;;;15.73;67.01
9538;BME280;4807;48.024;11.726;2023-05-16T08:58:19;94563.22;;;16.00;66.37
9538;BME280;4807;48.024;11.726;2023-05-16T09:01:28;94558.81;;;13.46;71.94
9538;BME280;4807;48.024;11.726;2023-05-16T09:04:40;94563.44;;;14.03;72.48
9538;BME280;4807;48.024;11.726;2023-05-16T09:07:50;94560.69;;;15.08;71.03
9538;BME280;4807;48.024;11.726;2023-05-16T09:10:59;94553.09;;;13.84;70.51
9538;BME280;4807;48.024;11.726;2023-05-16T09:14:07;94555.06;;;13.88;72.83
9538;BME280;4807;48.024;11.726;2023-05-16T09:17:15;94557.63;;;14.76;69.40
9538;BME280;4807;48.024;11.726;2023-05-16T09:20:33;94549.34;;;13.31;72.85
9538;BME280;4807;48.024;11.726;2023-05-16T09:23:42;94551.75;;;13.21;74.02
9538;BME280;4807;48.024;11.726;2023-05-16T09:26:53;94551.19;;;12.46;76.45
9538;BME280;4807;48.024;11.726;2023-05-16T09:30:01;94562.38;;;12.37;77.74
9538;BME280;4807;48.024;11.726;2023-05-16T09:33:11;94544.31;;;12.39;77.78
9538;BME280;4807;48.024;11.726;2023-05-16T09:36:20;94546.88;;;12.82;75.61
9538;BME280;4807;48.024;11.726;2023-05-16T09:39:29;94539.78;;;13.06;74.35
9538;BME280;4807;48.024;11.726;2023-05-16T09:42:37;94549.84;;;12.92;75.78
9538;BME280;4807;48.024;11.726;2023-05-16T09:45:47;94552.66;;;13.15;75.55
9538;BME280;4807;48.024;11.726;2023-05-16T09:48:56;94554.41;;;12.55;75.92
9538;BME280;4807;48.024;11.726;2023-05-16T09:52:06;94562.63;;;12.53;77.10
9538;BME280;4807;48.024;11.726;2023-05-16T09:55:16;94565.50;;;12.52;75.86
9538;BME280;4807;48.024;11.726;2023-05-16T09:58:28;94566.13;;;12.72;77.49
9538;BME280;4807;48.024;11.726;2023-05-16T10:01:37;94568.03;;;13.20;75.44
9538;BME280;4807;48.024;11.726;2023-05-16T10:04:45;94568.59;;;13.22;74.68
9538;BME280;4807;48.024;11.726;2023-05-16T10:07:56;94575.28;;;12.58;76.30
9538;BME280;4807;48.024;11.726;2023-05-16T10:11:05;94570.28;;;12.25;75.78
9538;BME280;4807;48.024;11.726;2023-05-16T10:14:17;94564.94;;;12.07;78.12
9538;BME280;4807;48.024;11.726;2023-05-16T10:17:27;94568.69;;;12.24;76.98
9538;BME280;4807;48.024;11.726;2023-05-16T10:20:41;94565.13;;;12.30;76.72
9538;BME280;4807;48.024;11.726;2023-05-16T10:23:56;94557.44;;;12.40;75.01
9538;BME280;4807;48.024;11.726;2023-05-16T10:27:06;94570.31;;;12.98;75.47
9538;BME280;4807;48.024;11.726;2023-05-16T10:30:14;94580.78;;;13.48;74.43
9538;BME280;4807;48.024;11.726;2023-05-16T10:33:23;94581.00;;;13.76;73.36
9538;BME280;4807;48.024;11.726;2023-05-16T10:36:33;94579.66;;;13.07;73.58
9538;BME280;4807;48.024;11.726;2023-05-16T10:39:43;94581.31;;;12.72;76.95
9538;BME280;4807;48.024;11.726;2023-05-16T10:42:55;94579.22;;;13.10;76.18
9538;BME280;4807;48.024;11.726;2023-05-16T10:46:07;94572.56;;;12.83;75.76
9538;BME280;4807;48.024;11.726;2023-05-16T10:49:21;94578.03;;;13.24;75.71
9538;BME280;4807;48.024;11.726;2023-05-16T10:52:32;94573.63;;;13.30;75.36
9538;BME280;4807;48.024;11.726;2023-05-16T10:55:49;94582.63;;;13.47;75.13
9538;BME280;4807;48.024;11.726;2023-05-16T10:59:01;94583.31;;;12.94;75.75
9538;BME280;4807;48.024;11.726;2023-05-16T11:02:25;94580.22;;;12.79;77.39
9538;BME280;4807;48.024;11.726;2023-05-16T11:05:34;94572.66;;;13.06;77.32
9538;BME280;4807;48.024;11.726;2023-05-16T11:09:03;94573.22;;;13.15;75.58
9538;BME280;4807;48.024;11.726;2023-05-16T11:12:13;94577.59;;;13.27;75.95
9538;BME280;4807;48.024;11.726;2023-05-16T11:15:27;94565.56;;;13.18;74.51
9538;BME280;4807;48.024;11.726;2023-05-16T11:18:49;94565.00;;;13.58;74.79
9538;BME280;4807;48.024;11.726;2023-05-16T11:22:16;94561.03;;;13.49;76.26
9538;BME280;4807;48.024;11.726;2023-05-16T11:25:35;94558.94;;;14.16;73.78
9538;BME280;4807;48.024;11.726;2023-05-16T11:28:50;94564.16;;;14.22;74.24
9538;BME280;4807;48.024;11.726;2023-05-16T11:32:01;94563.72;;;14.83;72.82
9538;BME280;4807;48.024;11.726;2023-05-16T11:35:13;94561.78;;;13.79;74.03
9538;BME280;4807;48.024;11.726;2023-05-16T11:38:21;94556.22;;;13.39;75.18
9538;BME280;4807;48.024;11.726;2023-05-16T11:41:31;94557.69;;;13.05;77.83
9538;BME280;4807;48.024;11.726;2023-05-16T11:44:41;94552.44;;;13.58;76.44
9538;BME280;4807;48.024;11.726;2023-05-16T11:47:49;94559.16;;;13.38;76.14
9538;BME280;4807;48.024;11.726;2023-05-16T11:50:57;94553.25;;;13.17;76.70
9538;BME280;4807;48.024;11.726;2023-05-16T11:54:06;94563.41;;;13.09;79.38
9538;BME280;4807;48.024;11.726;2023-05-16T11:57:16;94574.41;;;12.82;80.88
9538;BME280;4807;48.024;11.726;2023-05-16T12:00:27;94586.78;;;12.58;80.50
9538;BME280;4807;48.024;11.726;2023-05-16T12:03:36;94581.91;;;12.55;81.68
9538;BME280;4807;48.024;11.726;2023-05-16T12:06:58;94592.72;;;12.42;81.82
9538;BME280;4807;48.024;11.726;2023-05-16T12:10:09;94574.59;;;12.08;84.57
9538;BME280;4807;48.024;11.726;2023-05-16T12:13:20;94580.06;;;12.13;84.64
9538;BME280;4807;48.024;11.726;2023-05-16T12:16:30;94584.44;;;12.07;83.16
9538;BME280;4807;48.024;11.726;2023-05-16T12:19:38;94571.25;;;11.88;79.91
9538;BME280;4807;48.024;11.726;2023-05-16T12:22:47;94569.41;;;11.88;85.15
9538;BME280;4807;48.024;11.726;2023-05-16T12:25:56;94568.78;;;12.11;86.41
9538;BME280;4807;48.024;11.726;2023-05-16T12:29:07;94566.25;;;11.98;85.82
9538;BME280;4807;48.024;11.726;2023-05-16T12:32:19;94570.91;;;11.77;87.69
9538;BME280;4807;48.024;11.726;2023-05-16T12:35:30;94570.44;;;11.56;88.23
9538;BME280;4807;48.024;11.726;2023-05-16T12:38:39;94565.78;;;11.51;89.04
9538;BME280;4807;48.024;11.726;2023-05-16T12:41:48;94562.28;;;11.51;88.33
9538;BME280;4807;48.024;11.726;2023-05-16T12:44:56;94568.38;;;11.58;88.33
9538;BME280;4807;48.024;11.726;2023-05-16T12:48:11;94567.16;;;11.54;88.79
9538;BME280;4807;48.024;11.726;2023-05-16T12:51:19;94562.22;;;11.57;88.93
9538;BME280;4807;48.024;11.726;2023-05-16T12:54:27;94561.78;;;11.60;89.51
9538;BME280;4807;48.024;11.726;2023-05-16T12:57:36;94560.19;;;11.59;89.43
9538;BME280;4807;48.024;11.726;2023-05-16T13:00:45;94547.75;;;11.46;83.19
9538;BME280;4807;48.024;11.726;2023-05-16T13:03:55;94538.16;;;11.95;84.75
9538;BME280;4807;48.024;11.726;2023-05-16T13:07:04;94543.34;;;12.08;85.37
9538;BME280;4807;48.024;11.726;2023-05-16T13:10:13;94539.81;;;12.14;84.30
9538;BME280;4807;48.024;11.726;2023-05-16T13:13:21;94537.44;;;12.06;83.80
9538;BME280;4807;48.024;11.726;2023-05-16T13:16:42;94543.13;;;11.92;85.21
9538;BME280;4807;48.024;11.726;2023-05-16T13:19:52;94536.78;;;11.86;84.08
9538;BME280;4807;48.024;11.726;2023-05-16T13:23:00;94538.09;;;12.02;83.04
9538;BME280;4807;48.024;11.726;2023-05-16T13:26:08;94543.75;;;12.12;82.97
9538;BME280;4807;48.024;11.726;2023-05-16T13:29:16;94542.00;;;12.24;82.74
9538;BME280;4807;48.024;11.726;2023-05-16T13:32:25;94551.34;;;12.51;84.58
9538;BME280;4807;48.024;11.726;2023-05-16T13:35:34;94555.22;;;12.55;84.82
9538;BME280;4807;48.024;11.726;2023-05-16T13:38:43;94550.09;;;12.54;84.72
9538;BME280;4807;48.024;11.726;2023-05-16T13:41:51;94562.47;;;12.67;84.34
9538;BME280;4807;48.024;11.726;2023-05-16T13:45:00;94545.28;;;12.63;84.72
9538;BME280;4807;48.024;11.726;2023-05-16T13:48:08;94549.91;;;12.85;85.01
9538;BME280;4807;48.024;11.726;2023-05-16T13:51:18;94543.75;;;13.03;84.84
9538;BME280;4807;48.024;11.726;2023-05-16T13:54:27;94550.59;;;12.81;84.95
9538;BME280;4807;48.024;11.726;2023-05-16T13:57:35;94554.31;;;12.61;84.27
9538;BME280;4807;48.024;11.726;2023-05-16T14:00:43;94552.59;;;12.49;86.54
9538;BME280;4807;48.024;11.726;2023-05-16T14:03:52;94548.75;;;12.45;85.73
9538;BME280;4807;48.024;11.726;2023-05-16T14:07:02;94548.06;;;12.49;84.59
9538;BME280;4807;48.024;11.726;2023-05-16T14:10:10;94570.84;;;11.59;84.56
9538;BME280;4807;48.024;11.726;2023-05-16T14:13:18;94584.72;;;11.36;83.81
9538;BME280;4807;48.024;11.726;2023-05-16T14:16:27;94600.72;;;10.92;86.23
9538;BME280;4807;48.024;11.726;2023-05-16T14:19:37;94601.47;;;11.05;86.51
9538;BME280;4807;48.024;11.726;2023-05-16T14:22:46;94603.19;;;10.93;84.41
9538;BME280;4807;48.024;11.726;2023-05-16T14:25:54;94601.09;;;10.95;86.26
9538;BME280;4807;48.024;11.726;2023-05-16T14:29:02;94612.56;;;11.02;85.81
9538;BME280;4807;48.024;11.726;2023-05-16T14:32:11;94605.13;;;11.18;86.13
9538;BME280;4807;48.024;11.726;2023-05-16T14:35:19;94607.41;;;11.07;85.05
9538;BME280;4807;48.024;11.726;2023-05-16T14:38:29;94607.00;;;11.04;84.90
9538;BME280;4807;48.024;11.726;2023-05-16T14:41:37;94609.53;;;10.92;86.83
9538;BME280;4807;48.024;11.726;2023-05-16T14:44:46;94613.88;;;10.80;85.33
9538;BME280;4807;48.024;11.726;2023-05-16T14:47:54;94608.97;;;10.77;86.79
9538;BME280;4807;48.024;11.726;2023-05-16T14:51:02;94615.13;;;10.78;86.72
9538;BME280;4807;48.024;11.726;2023-05-16T14:54:12;94615.94;;;10.78;86.50
9538;BME280;4807;48.024;11.726;2023-05-16T14:57:20;94630.28;;;10.77;86.85
9538;BME280;4807;48.024;11.726;2023-05-16T15:00:29;94616.78;;;10.65;87.53
9538;BME280;4807;48.024;11.726;2023-05-16T15:03:38;94630.06;;;10.72;88.17
9538;BME280;4807;48.024;11.726;2023-05-16T15:07:00;94627.41;;;10.72;86.89
9538;BME280;4807;48.024;11.726;2023-05-16T15:10:10;94631.56;;;10.55;87.15
9538;BME280;4807;48.024;11.726;2023-05-16T15:13:18;94634.66;;;10.52;87.66
9538;BME280;4807;48.024;11.726;2023-05-16T15:16:28;94632.59;;;10.41;87.49
9538;BME280;4807;48.024;11.726;2023-05-16T15:19:37;94629.53;;;10.44;88.14
9538;BME280;4807;48.024;11.726;2023-05-16T15:22:46;94637.53;;;10.30;87.79
9538;BME280;4807;48.024;11.726;2023-05-16T15:25:56;94647.78;;;10.33;87.82
9538;BME280;4807;48.024;11.726;2023-05-16T15:29:05;94653.91;;;10.41;87.87
9538;BME280;4807;48.024;11.726;2023-05-16T15:32:13;94656.56;;;10.41;87.76
9538;BME280;4807;48.024;11.726;2023-05-16T15:35:23;94653.06;;;10.47;87.62
9538;BME280;4807;48.024;11.726;2023-05-16T15:38:32;94660.66;;;10.50;87.38
9538;BME280;4807;48.024;11.726;2023-05-16T15:41:43;94665.13;;;10.56;87.30
9538;BME280;4807;48.024;11.726;2023-05-16T15:45:12;94661.88;;;10.54;87.46
9538;BME280;4807;48.024;11.726;2023-05-16T15:48:20;94668.00;;;10.54;87.92
9538;BME280;4807;48.024;11.726;2023-05-16T15:51:28;94676.19;;;10.59;87.32
9538;BME280;4807;48.024;11.726;2023-05-16T15:54:36;94676.19;;;10.59;87.16
9538;BME280;4807;48.024;11.726;2023-05-16T15:57:46;94669.44;;;10.57;86.82
9538;BME280;4807;48.024;11.726;2023-05-16T16:00:54;94674.53;;;10.65;88.16
9538;BME280;4807;48.024;11.726;2023-05-16T16:04:03;94678.22;;;10.77;87.74
9538;BME280;4807;48.024;11.726;2023-05-16T16:07:11;94680.44;;;10.87;86.97
9538;BME280;4807;48.024;11.726;2023-05-16T16:10:20;94672.03;;;10.90;86.54
9538;BME280;4807;48.024;11.726;2023-05-16T16:13:32;94675.09;;;10.87;86.76
9538;BME280;4807;48.024;11.726;2023-05-16T16:16:41;94686.56;;;10.87;86.73
9538;BME280;4807;48.024;11.726;2023-05-16T16:19:50;94684.31;;;10.91;85.81
9538;BME280;4807;48.024;11.726;2023-05-16T16:22:59;94679.81;;;10.91;86.86
9538;BME280;4807;48.024;11.726;2023-05-16T16:26:07;94678.16;;;10.97;87.49
9538;BME280;4807;48.024;11.726;2023-05-16T16:29:18;94679.41;;;10.94;86.96
9538;BME280;4807;48.024;11.726;2023-05-16T16:32:27;94692.13;;;10.86;85.94
9538;BME280;4807;48.024;11.726;2023-05-16T16:35:36;94693.75;;;10.87;86.76
9538;BME280;4807;48.024;11.726;2023-05-16T16:38:45;94691.28;;;10.92;87.39
9538;BME280;4807;48.024;11.726;2023-05-16T16:41:53;94698.25;;;10.93;86.65
9538;BME280;4807;48.024;11.726;2023-05-16T16:45:05;94699.06;;;10.93;86.06
9538;BME280;4807;48.024;11.726;2023-05-16T16:48:14;94699.47;;;10.97;85.66
9538;BME280;4807;48.024;11.726;2023-05-16T16:51:22;94707.28;;;10.85;86.17
9538;BME280;4807;48.024;11.726;2023-05-16T16:54:30;94708.09;;;10.92;86.45
9538;BME280;4807;48.024;11.726;2023-05-16T16:57:40;94699.06;;;10.93;86.45
9538;BME280;4807;48.024;11.726;2023-05-16T17:00:50;94708.47;;;10.96;86.37
9538;BME280;4807;48.024;11.726;2023-05-16T17:04:08;94708.53;;;10.76;86.66